Weather at CFB Cold Lake

Public forecast

Using degrees Celsius for public forecast. Weather courtesy of forecast.io.

Current aviation weather report (METAR) for CFB Cold Lake

Retrieved 2020/09/23 08:00 UTC (57 minutes ago):

CYOD 230800Z 13005KT 15SM SKC 07/02 A3004 RMK SLP185

Aviation forecast (TAF) for CFB Cold Lake

Retrieved 2020/09/23 06:35 UTC (2 hours ago):

TAF CYOD 230530Z 2306/2406 13005KT P6SM FEW060 PROB30 2310/2313 2SM BR FM231500 12010KT P6SM FEW050 BECMG 2318/2320 14015G25KT FM240200 14015G25KT P6SM FEW050 SCT150 BKN260 BECMG 2402/2404 15015KT RMK NXT FCST BY 231200Z